Time;durP1;ratioP1;P1;durP2;ratioP2;P2;SDS_P1;SDS_P2;PMS_P1;PMS_P2;Temp;Humidity;BMP_temperature;BMP_pressure;BME280_temperature;BME280_humidity;BME280_pressure;Samples;Min_cycle;Max_cycle;Signal;HPM_P1;HPM_P2
2021/10/08 00:00:49;;;;;;;0.28;0.20;;;23.70;44.40;28.10;94630.00;;;;10350996;28;47021;-61
2021/10/08 00:05:49;;;;;;;0.65;0.15;;;23.70;44.40;28.00;94628.00;;;;10350522;28;73527;-61
2021/10/08 00:10:50;;;;;;;0.47;0.10;;;23.70;44.40;28.00;94623.00;;;;10350497;28;76538;-61
2021/10/08 00:15:50;;;;;;;0.10;0.10;;;23.70;44.40;28.00;94626.00;;;;10349404;28;75052;-60
2021/10/08 00:20:51;;;;;;;0.20;0.10;;;23.70;44.40;28.10;94633.00;;;;10351430;28;74468;-61
2021/10/08 00:25:52;;;;;;;0.50;0.20;;;23.70;44.40;28.00;94636.00;;;;10349640;28;73818;-61
2021/10/08 00:30:53;;;;;;;0.45;0.20;;;23.70;44.40;28.00;94636.00;;;;10350764;28;58626;-61
2021/10/08 00:35:53;;;;;;;1.65;0.40;;;23.70;44.40;28.00;94644.00;;;;10350418;28;74630;-61
2021/10/08 00:40:54;;;;;;;0.40;0.13;;;23.60;44.40;28.00;94643.00;;;;10349119;28;75556;-60
2021/10/08 00:45:55;;;;;;;0.30;0.20;;;23.70;44.40;28.00;94632.00;;;;10348945;28;75541;-61
2021/10/08 00:50:56;;;;;;;0.40;0.20;;;23.60;44.40;28.00;94627.00;;;;10333071;28;63500;-60
2021/10/08 00:55:56;;;;;;;0.47;0.20;;;23.60;44.40;28.00;94612.00;;;;10350482;28;52214;-60
2021/10/08 01:00:57;;;;;;;0.10;0.10;;;23.70;44.40;28.00;94606.00;;;;10345819;28;55041;-61
2021/10/08 01:05:58;;;;;;;0.10;0.10;;;23.60;44.40;28.00;94623.00;;;;10346871;28;75243;-61
2021/10/08 01:10:59;;;;;;;0.10;0.10;;;23.60;44.40;28.00;94618.00;;;;10348312;28;74906;-60
2021/10/08 01:15:59;;;;;;;0.10;0.10;;;23.70;44.40;28.00;94617.00;;;;10349371;28;45704;-61
2021/10/08 01:21:00;;;;;;;0.38;0.20;;;23.60;44.40;28.00;94609.00;;;;10349615;28;74259;-61
2021/10/08 01:26:02;;;;;;;0.32;0.10;;;23.60;44.40;28.00;94625.00;;;;10348480;28;55739;-61
2021/10/08 01:31:03;;;;;;;0.10;0.10;;;23.60;44.40;28.00;94618.00;;;;10348964;28;47147;-61
2021/10/08 01:36:04;;;;;;;0.15;0.10;;;23.60;44.40;27.90;94633.00;;;;10353994;28;45545;-61
2021/10/08 01:41:04;;;;;;;0.28;0.20;;;23.60;44.40;27.90;94608.00;;;;10355544;28;68447;-63
2021/10/08 01:46:05;;;;;;;0.30;0.20;;;23.60;44.40;27.90;94626.00;;;;10354368;28;74444;-62
2021/10/08 01:51:06;;;;;;;0.10;0.10;;;23.60;44.40;27.90;94603.00;;;;10356353;28;50659;-61
2021/10/08 01:56:07;;;;;;;0.30;0.10;;;23.60;44.40;27.90;94609.00;;;;10355614;28;46563;-61
2021/10/08 02:01:08;;;;;;;0.32;0.20;;;23.60;44.40;27.90;94611.00;;;;10355888;28;45473;-62
2021/10/08 02:06:08;;;;;;;0.30;0.10;;;23.50;44.40;27.90;94613.00;;;;10354390;28;74186;-61
2021/10/08 02:11:10;;;;;;;0.30;0.20;;;23.60;44.40;27.90;94598.00;;;;10354809;28;64311;-61
2021/10/08 02:16:11;;;;;;;0.20;0.20;;;23.60;44.40;27.90;94612.00;;;;10354405;28;45653;-61
2021/10/08 02:21:11;;;;;;;0.20;0.20;;;23.50;44.40;27.90;94610.00;;;;10354781;28;47241;-61
2021/10/08 02:26:13;;;;;;;0.35;0.13;;;23.60;44.40;27.90;94587.00;;;;10338005;28;47375;-60
2021/10/08 02:31:14;;;;;;;0.45;0.15;;;23.60;44.50;27.90;94596.00;;;;10355896;28;52865;-62
2021/10/08 02:36:15;;;;;;;0.38;0.20;;;23.50;44.40;27.90;94594.00;;;;10353931;28;46170;-61
2021/10/08 02:41:16;;;;;;;0.40;0.10;;;23.50;44.40;27.90;94587.00;;;;10353868;28;74419;-61
2021/10/08 02:46:17;;;;;;;0.32;0.20;;;23.50;44.40;27.90;94587.00;;;;10353609;28;75311;-60
2021/10/08 02:51:17;;;;;;;0.43;0.20;;;23.50;44.40;27.90;94594.00;;;;10354329;28;74333;-61
2021/10/08 02:56:18;;;;;;;0.20;0.10;;;23.50;44.40;27.90;94584.00;;;;10353682;28;74527;-61
2021/10/08 03:01:20;;;;;;;0.28;0.20;;;23.50;44.40;27.90;94590.00;;;;10353043;28;73030;-61
2021/10/08 03:06:20;;;;;;;0.28;0.20;;;23.50;44.40;27.90;94580.00;;;;10354187;28;45568;-62
2021/10/08 03:11:21;;;;;;;0.38;0.20;;;23.50;44.40;27.90;94594.00;;;;10353003;28;64595;-61
2021/10/08 03:16:22;;;;;;;0.40;0.30;;;23.50;44.40;27.90;94610.00;;;;10366907;22;45317;-61
2021/10/08 03:21:23;;;;;;;0.15;0.15;;;23.50;44.50;27.90;94613.00;;;;10354120;28;46849;-60
2021/10/08 03:26:24;;;;;;;0.17;0.10;;;23.50;44.40;27.90;94613.00;;;;10353220;28;74578;-63
2021/10/08 03:31:25;;;;;;;0.77;0.30;;;23.50;44.50;27.90;94600.00;;;;10354704;28;53736;-61
2021/10/08 03:36:30;;;;;;;0.10;0.10;;;23.50;44.40;27.90;94602.00;;;;10350573;28;75425;-62
2021/10/08 03:41:31;;;;;;;0.20;0.20;;;23.50;44.40;27.90;94593.00;;;;10353385;28;45295;-58
2021/10/08 03:46:45;;;;;;;0.20;0.20;;;23.50;44.50;27.80;94606.00;;;;10350793;28;66178;-61
2021/10/08 03:51:48;;;;;;;0.20;0.15;;;23.50;44.50;27.90;94599.00;;;;10352478;28;45383;-61
2021/10/08 03:56:49;;;;;;;0.15;0.13;;;23.50;44.50;27.80;94588.00;;;;10350909;28;45358;-59
2021/10/08 04:01:49;;;;;;;0.20;0.20;;;23.50;44.50;27.80;94595.00;;;;10351638;28;75566;-59
2021/10/08 04:06:50;;;;;;;0.43;0.20;;;23.50;44.50;27.80;94583.00;;;;10349946;28;73207;-59
2021/10/08 04:11:51;;;;;;;0.35;0.25;;;23.50;44.50;27.90;94595.00;;;;10350766;28;73250;-58
2021/10/08 04:16:51;;;;;;;0.30;0.20;;;23.50;44.50;27.90;94583.00;;;;10350894;28;73661;-59
2021/10/08 04:21:52;;;;;;;0.30;0.30;;;23.50;44.50;27.90;94592.00;;;;10351427;28;73462;-61
2021/10/08 04:26:53;;;;;;;0.30;0.20;;;23.60;44.50;28.00;94594.00;;;;10351002;28;45639;-60
2021/10/08 04:31:54;;;;;;;0.22;0.13;;;23.70;44.50;28.00;94593.00;;;;10350492;28;46222;-60
2021/10/08 04:36:54;;;;;;;0.35;0.20;;;23.70;44.50;28.10;94589.00;;;;10350842;28;75508;-59
2021/10/08 04:41:55;;;;;;;0.28;0.20;;;23.70;44.40;28.10;94588.00;;;;10365901;28;75610;-60
2021/10/08 04:46:56;;;;;;;0.73;0.22;;;23.70;44.40;28.10;94582.00;;;;10348486;28;72530;-59
2021/10/08 04:51:56;;;;;;;0.20;0.13;;;23.80;44.30;28.20;94590.00;;;;10349081;28;74355;-59
2021/10/08 04:56:57;;;;;;;0.50;0.30;;;23.80;44.30;28.20;94601.00;;;;10331787;28;73320;-59
2021/10/08 05:01:58;;;;;;;0.20;0.20;;;23.80;44.20;28.20;94602.00;;;;10351178;28;61008;-59
2021/10/08 05:06:59;;;;;;;0.25;0.20;;;23.80;44.20;28.20;94582.00;;;;10348804;28;60603;-59
2021/10/08 05:11:59;;;;;;;0.30;0.25;;;23.80;44.10;28.30;94591.00;;;;10349458;28;75375;-59
2021/10/08 05:17:00;;;;;;;0.28;0.20;;;23.90;44.20;28.30;94595.00;;;;10347578;28;75256;-58
2021/10/08 05:22:01;;;;;;;0.20;0.20;;;23.90;44.20;28.30;94583.00;;;;10331849;28;75328;-59
2021/10/08 05:27:02;;;;;;;0.35;0.30;;;23.90;44.80;28.30;94578.00;;;;10349506;28;52075;-58
2021/10/08 05:32:03;;;;;;;0.38;0.35;;;23.90;44.10;28.30;94593.00;;;;10350878;28;45515;-58
2021/10/08 05:37:04;;;;;;;0.22;0.20;;;23.90;44.00;28.30;94581.00;;;;10348282;28;46545;-58
2021/10/08 05:42:05;;;;;;;0.43;0.40;;;23.90;44.00;28.30;94583.00;;;;10348885;28;45400;-60
2021/10/08 05:47:06;;;;;;;0.43;0.30;;;23.90;44.00;28.40;94577.00;;;;10347792;28;60071;-58
2021/10/08 05:52:07;;;;;;;0.43;0.22;;;24.00;44.00;28.40;94584.00;;;;10348790;28;74332;-58
2021/10/08 05:57:08;;;;;;;0.45;0.30;;;24.00;44.00;28.40;94593.00;;;;10347403;28;51951;-58
2021/10/08 06:02:08;;;;;;;0.52;0.30;;;24.00;44.00;28.40;94586.00;;;;10348162;28;45277;-62
2021/10/08 06:07:10;;;;;;;1.00;0.43;;;24.00;43.90;28.40;94614.00;;;;10346526;28;75788;-58
2021/10/08 06:12:11;;;;;;;0.43;0.30;;;24.00;43.70;28.40;94604.00;;;;10364746;28;47481;-59
2021/10/08 06:17:12;;;;;;;1.05;0.50;;;24.00;43.50;28.40;94623.00;;;;10348729;28;54127;-59
2021/10/08 06:22:13;;;;;;;0.98;0.50;;;23.90;43.40;28.40;94603.00;;;;10350541;28;75632;-59
2021/10/08 06:27:14;;;;;;;1.13;0.40;;;23.90;43.40;28.40;94613.00;;;;10354613;28;47815;-59
2021/10/08 06:32:14;;;;;;;1.60;0.57;;;23.90;43.30;28.40;94607.00;;;;10354272;28;75072;-58
2021/10/08 06:37:15;;;;;;;2.25;0.60;;;23.90;43.40;28.40;94613.00;;;;10352744;28;74320;-58
2021/10/08 06:42:16;;;;;;;0.50;0.35;;;23.90;43.30;28.40;94605.00;;;;10354932;28;75639;-58
2021/10/08 06:47:16;;;;;;;1.05;0.55;;;23.90;43.30;28.30;94605.00;;;;10353126;28;55994;-60
2021/10/08 06:52:17;;;;;;;2.33;0.60;;;23.90;43.20;28.40;94596.00;;;;10354219;28;75243;-59
2021/10/08 06:57:18;;;;;;;0.65;0.52;;;23.90;43.20;28.40;94609.00;;;;10352407;28;69066;-59
2021/10/08 07:02:19;;;;;;;3.30;0.60;;;23.90;43.20;28.40;94601.00;;;;10354165;28;46166;-59
2021/10/08 07:07:19;;;;;;;1.80;0.55;;;23.90;43.40;28.40;94619.00;;;;10353442;28;75268;-58
2021/10/08 07:12:20;;;;;;;1.27;0.40;;;23.90;43.30;28.30;94618.00;;;;10354115;28;75495;-58
2021/10/08 07:17:23;;;;;;;2.33;0.70;;;24.00;43.30;28.40;94613.00;;;;10352652;28;74549;-59
2021/10/08 07:22:24;;;;;;;1.27;0.40;;;23.90;43.30;28.40;94605.00;;;;10353223;28;45313;-59
2021/10/08 07:27:25;;;;;;;2.17;0.57;;;23.90;43.30;28.40;94616.00;;;;10352735;28;74393;-59
2021/10/08 07:32:27;;;;;;;0.85;0.45;;;23.90;43.30;28.30;94612.00;;;;10354315;28;75521;-58
2021/10/08 07:37:27;;;;;;;1.42;0.60;;;23.90;43.30;28.40;94631.00;;;;10353620;28;46315;-60
2021/10/08 07:42:28;;;;;;;0.65;0.40;;;23.90;43.30;28.30;94623.00;;;;10352813;28;71098;-59
2021/10/08 07:47:29;;;;;;;1.00;0.40;;;23.90;43.30;28.40;94640.00;;;;10352227;28;45311;-59
2021/10/08 07:52:29;;;;;;;1.73;0.52;;;23.90;43.30;28.30;94619.00;;;;10350951;28;73904;-59
2021/10/08 07:57:30;;;;;;;1.98;0.70;;;23.90;43.30;28.40;94616.00;;;;10334959;28;47047;-58
2021/10/08 08:02:31;;;;;;;0.73;0.50;;;23.90;43.40;28.30;94621.00;;;;10352122;28;68569;-58
2021/10/08 08:07:32;;;;;;;1.10;0.50;;;24.00;43.40;28.40;94634.00;;;;10353108;28;45571;-59
2021/10/08 08:12:32;;;;;;;1.27;0.50;;;24.00;43.40;28.40;94642.00;;;;10352903;28;46534;-59
2021/10/08 08:17:33;;;;;;;1.35;0.52;;;23.90;43.30;28.40;94628.00;;;;10349561;28;75129;-58
2021/10/08 08:22:34;;;;;;;1.25;0.50;;;23.90;43.30;28.40;94623.00;;;;10350052;28;75812;-59
2021/10/08 08:27:35;;;;;;;1.48;0.47;;;23.90;43.30;28.40;94632.00;;;;10350097;28;51094;-58
2021/10/08 08:32:36;;;;;;;1.45;0.70;;;23.90;43.30;28.40;94632.00;;;;10350821;28;49470;-58
2021/10/08 08:37:37;;;;;;;1.25;0.52;;;23.90;43.70;28.30;94626.00;;;;10350326;28;45281;-59
2021/10/08 08:42:38;;;;;;;1.42;0.50;;;23.90;43.30;28.40;94638.00;;;;10350830;28;45379;-58
2021/10/08 08:47:39;;;;;;;1.48;0.52;;;23.90;43.30;28.40;94632.00;;;;10349569;28;75691;-59
2021/10/08 08:52:39;;;;;;;1.42;0.40;;;23.90;43.30;28.40;94631.00;;;;10351118;28;45506;-58
2021/10/08 08:57:40;;;;;;;0.80;0.50;;;23.90;43.30;28.30;94629.00;;;;10349960;28;75492;-58
2021/10/08 09:02:41;;;;;;;1.40;0.60;;;23.90;43.30;28.40;94631.00;;;;10348508;28;75342;-60
2021/10/08 09:07:41;;;;;;;1.30;0.50;;;23.90;43.30;28.40;94624.00;;;;10349262;28;47362;-58
2021/10/08 09:12:44;;;;;;;1.20;0.60;;;24.00;43.40;28.40;94628.00;;;;10348290;28;74232;-58
2021/10/08 09:17:45;;;;;;;0.93;0.57;;;24.00;43.40;28.40;94634.00;;;;10407181;22;45463;-61
2021/10/08 09:22:50;;;;;;;0.80;0.55;;;23.90;43.30;28.40;94623.00;;;;10407183;28;45350;-62
2021/10/08 09:28:01;;;;;;;1.48;0.50;;;23.90;43.30;28.40;94612.00;;;;10406701;28;45332;-61
2021/10/08 09:33:16;;;;;;;0.82;0.60;;;23.90;43.30;28.40;94620.00;;;;10390985;28;45393;-61
2021/10/08 09:38:17;;;;;;;0.98;0.60;;;23.90;43.30;28.30;94626.00;;;;10389547;28;45497;-61
2021/10/08 09:43:25;;;;;;;1.33;0.60;;;23.90;43.30;28.40;94617.00;;;;10390012;28;45639;-61
2021/10/08 09:48:42;;;;;;;1.27;0.50;;;24.00;43.30;28.40;94614.00;;;;10390678;28;45617;-61
2021/10/08 09:53:46;;;;;;;0.80;0.50;;;23.90;43.30;28.40;94611.00;;;;10390314;28;45339;-61
2021/10/08 09:58:52;;;;;;;0.90;0.60;;;24.00;43.30;28.40;94606.00;;;;10395543;28;46005;-61
2021/10/08 10:03:54;;;;;;;0.55;0.55;;;24.00;43.30;28.40;94620.00;;;;10398142;28;45516;-61
2021/10/08 10:08:55;;;;;;;0.60;0.45;;;24.00;43.30;28.40;94620.00;;;;10396327;28;45371;-61
2021/10/08 10:13:59;;;;;;;1.08;0.70;;;24.00;43.30;28.40;94616.00;;;;10396216;28;48115;-61
2021/10/08 10:19:02;;;;;;;0.90;0.70;;;24.00;43.30;28.40;94612.00;;;;10395875;28;46285;-61
2021/10/08 10:24:04;;;;;;;1.10;0.60;;;24.00;43.30;28.40;94607.00;;;;10396183;28;45702;-61
2021/10/08 10:29:06;;;;;;;0.90;0.50;;;24.00;43.30;28.40;94602.00;;;;10395126;28;45365;-61
2021/10/08 10:34:07;;;;;;;0.93;0.60;;;24.00;43.30;28.40;94599.00;;;;10396797;28;45354;-63
2021/10/08 10:39:11;;;;;;;0.98;0.70;;;24.00;43.20;28.40;94608.00;;;;10394647;28;45470;-61
2021/10/08 10:44:17;;;;;;;1.25;0.85;;;24.00;43.30;28.40;94603.00;;;;10394988;28;47037;-62
2021/10/08 10:54:55;;;;;;;1.17;0.80;;;24.00;43.40;28.40;94602.00;;;;10395444;28;46237;-61
2021/10/08 11:00:13;;;;;;;1.60;0.90;;;24.00;43.30;28.50;94599.00;;;;10395097;28;46703;-61
2021/10/08 11:05:23;;;;;;;1.05;0.80;;;24.00;43.40;28.40;94593.00;;;;10394431;28;47216;-61
2021/10/08 11:10:23;;;;;;;1.17;0.60;;;24.00;43.40;28.40;94603.00;;;;10394399;28;45506;-61
2021/10/08 11:15:24;;;;;;;1.55;0.77;;;24.00;43.40;28.50;94596.00;;;;10393263;28;74438;-61
2021/10/08 11:20:31;;;;;;;1.40;0.93;;;24.00;43.40;28.50;94581.00;;;;10393304;28;47269;-61
2021/10/08 11:25:54;;;;;;;1.08;0.80;;;24.00;43.30;28.60;94585.00;;;;10393337;28;47535;-61
2021/10/08 11:30:55;;;;;;;1.40;0.80;;;24.10;43.40;28.50;94583.00;;;;10393923;28;45571;-61
2021/10/08 11:35:56;;;;;;;1.00;0.73;;;24.10;43.30;28.50;94583.00;;;;10377038;28;53165;-61
2021/10/08 11:41:13;;;;;;;1.27;0.90;;;24.10;43.30;28.60;94558.00;;;;10392585;28;74114;-61
2021/10/08 11:51:26;;;;;;;1.08;0.85;;;24.10;43.30;28.60;94566.00;;;;10393809;28;45312;-62
2021/10/08 11:56:28;;;;;;;1.08;0.85;;;24.10;43.20;28.60;94568.00;;;;10391509;28;75573;-60
2021/10/08 12:01:30;;;;;;;1.30;1.10;;;24.10;43.30;28.60;94559.00;;;;10394264;28;45444;-61
2021/10/08 12:06:32;;;;;;;1.50;1.02;;;24.10;43.20;28.60;94546.00;;;;10391970;28;47044;-61
2021/10/08 12:11:33;;;;;;;1.48;1.00;;;24.10;43.20;28.60;94529.00;;;;10392453;28;45544;-61
2021/10/08 12:16:46;;;;;;;1.23;0.98;;;24.10;43.10;28.70;94529.00;;;;10393633;28;45522;-61
2021/10/08 12:21:48;;;;;;;1.25;1.00;;;24.10;43.80;28.60;94548.00;;;;10392855;28;53622;-61
2021/10/08 12:27:00;;;;;;;2.17;1.05;;;24.10;43.10;28.70;94542.00;;;;10392683;28;46521;-62
2021/10/08 12:32:03;;;;;;;1.25;0.90;;;24.10;43.10;28.60;94535.00;;;;10391954;28;47689;-61
2021/10/08 12:37:11;;;;;;;1.95;1.20;;;24.20;43.10;28.70;94524.00;;;;10392045;28;45610;-62
2021/10/08 12:42:22;;;;;;;2.85;1.10;;;24.20;43.10;28.70;94527.00;;;;10390145;28;47599;-61
2021/10/08 12:47:26;;;;;;;2.90;1.10;;;24.10;42.90;28.70;94517.00;;;;10375053;28;47146;-62
2021/10/08 12:52:49;;;;;;;2.38;1.30;;;24.20;42.90;28.80;94524.00;;;;10391735;28;45427;-61
2021/10/08 12:58:15;;;;;;;2.13;1.33;;;24.20;42.70;28.80;94521.00;;;;10391521;28;46161;-60
2021/10/08 13:03:37;;;;;;;1.60;1.17;;;24.20;42.50;28.80;94517.00;;;;10391797;28;45284;-61
2021/10/08 13:08:41;;;;;;;2.70;1.50;;;24.20;42.40;28.70;94515.00;;;;10390746;28;45420;-61
2021/10/08 13:13:51;;;;;;;2.95;1.15;;;24.20;42.20;28.70;94522.00;;;;10391509;28;45427;-63
2021/10/08 13:18:52;;;;;;;7.32;1.48;;;24.20;42.40;28.70;94517.00;;;;10390441;28;45673;-62
2021/10/08 13:23:55;;;;;;;4.22;1.50;;;24.30;43.10;28.70;94512.00;;;;10391517;28;45423;-62
2021/10/08 13:28:56;;;;;;;4.45;1.20;;;24.30;43.30;28.70;94519.00;;;;10390412;28;45463;-66
2021/10/08 13:33:57;;;;;;;5.07;1.35;;;24.30;43.60;28.80;94517.00;;;;10392074;28;45592;-68
2021/10/08 13:38:57;;;;;;;2.58;1.00;;;24.30;44.10;28.80;94520.00;;;;10398858;28;75600;-65
2021/10/08 13:43:58;;;;;;;2.72;1.25;;;24.30;44.20;28.80;94520.00;;;;10396948;28;75189;-63
2021/10/08 13:48:59;;;;;;;2.42;1.48;;;24.40;44.20;28.80;94499.00;;;;10371176;28;73293;-63
2021/10/08 13:53:59;;;;;;;1.83;1.13;;;24.40;44.10;28.80;94506.00;;;;10402866;28;60653;-62
2021/10/08 13:59:00;;;;;;;2.38;1.33;;;24.40;44.10;28.80;94493.00;;;;10410436;28;62245;-67
2021/10/08 14:04:12;;;;;;;3.05;1.25;;;24.30;43.00;28.70;94505.00;;;;10395937;28;75419;-65
2021/10/08 14:14:34;;;;;;;2.05;1.10;;;24.30;43.60;28.70;94512.00;;;;10348680;28;45582;-63
2021/10/08 14:19:35;;;;;;;2.08;1.30;;;24.30;42.80;28.70;94499.00;;;;10396658;28;73261;-63
2021/10/08 14:24:35;;;;;;;3.28;1.30;;;24.30;42.90;28.70;94518.00;;;;10396479;28;46088;-64
2021/10/08 14:29:36;;;;;;;3.65;1.30;;;24.30;42.50;28.70;94510.00;;;;10397153;28;46496;-63
2021/10/08 14:34:37;;;;;;;4.47;1.60;;;24.30;42.50;28.70;94507.00;;;;10396688;28;51598;-65
2021/10/08 14:39:37;;;;;;;2.67;1.67;;;24.30;42.50;28.70;94506.00;;;;10388082;28;49035;-63
2021/10/08 14:44:38;;;;;;;2.85;1.60;;;24.30;42.50;28.70;94511.00;;;;10405849;28;63006;-65
2021/10/08 14:49:39;;;;;;;2.20;1.33;;;24.30;42.50;28.70;94504.00;;;;10393999;28;74326;-64
2021/10/08 14:55:09;;;;;;;3.95;1.40;;;24.30;42.40;28.70;94500.00;;;;10396125;28;49584;-64
2021/10/08 15:00:10;;;;;;;2.55;1.40;;;24.30;42.50;28.70;94516.00;;;;10396796;28;47163;-63
2021/10/08 15:05:11;;;;;;;3.97;1.73;;;24.30;42.70;28.80;94505.00;;;;10394976;28;56449;-64
2021/10/08 15:10:13;;;;;;;2.30;1.50;;;24.30;42.70;28.80;94517.00;;;;10392417;28;45541;-62
2021/10/08 15:15:17;;;;;;;1.80;1.27;;;24.30;42.70;28.80;94512.00;;;;10392946;28;45361;-64
2021/10/08 15:20:18;;;;;;;2.55;1.50;;;24.30;42.90;28.80;94502.00;;;;10398011;22;75235;-61
2021/10/08 15:25:18;;;;;;;1.40;1.10;;;24.40;42.90;28.80;94493.00;;;;10390030;28;47121;-65
2021/10/08 15:30:22;;;;;;;2.65;1.65;;;24.40;43.00;28.80;94512.00;;;;10390135;28;45557;-66
2021/10/08 15:35:23;;;;;;;2.20;1.50;;;24.30;43.00;28.80;94523.00;;;;10343780;28;45495;-64
2021/10/08 15:40:23;;;;;;;3.25;1.60;;;24.40;43.00;28.80;94503.00;;;;10349086;28;75292;-64
2021/10/08 15:45:24;;;;;;;2.40;1.52;;;24.40;43.00;28.80;94502.00;;;;10352790;28;73657;-67
2021/10/08 15:50:25;;;;;;;2.30;1.60;;;24.40;43.00;28.80;94505.00;;;;10364722;28;74821;-65
2021/10/08 15:55:25;;;;;;;2.42;1.40;;;24.40;43.00;28.80;94512.00;;;;10352627;28;75965;-68
2021/10/08 16:00:28;;;;;;;2.08;1.40;;;24.40;43.00;28.80;94509.00;;;;10334464;28;74217;-66
2021/10/08 16:05:29;;;;;;;2.67;1.58;;;24.40;43.00;28.80;94519.00;;;;10350866;28;75264;-66
2021/10/08 16:10:29;;;;;;;2.70;1.40;;;24.40;43.00;28.90;94529.00;;;;10349300;28;76027;-67
2021/10/08 16:15:31;;;;;;;1.48;1.17;;;24.40;43.00;28.80;94532.00;;;;10349347;28;75238;-62
2021/10/08 16:20:33;;;;;;;2.08;1.50;;;24.40;42.90;28.80;94544.00;;;;10349003;28;47600;-62
2021/10/08 16:25:34;;;;;;;1.90;1.30;;;24.40;42.70;28.80;94529.00;;;;10349412;28;45498;-61
2021/10/08 16:30:36;;;;;;;1.70;1.38;;;24.40;42.50;28.80;94547.00;;;;10316428;28;75491;-64
2021/10/08 16:35:37;;;;;;;3.00;1.60;;;24.40;42.50;28.80;94553.00;;;;10335219;28;45511;-67
2021/10/08 16:40:38;;;;;;;2.38;1.45;;;24.30;42.70;28.80;94559.00;;;;10353149;28;48033;-63
2021/10/08 16:45:39;;;;;;;2.00;1.52;;;24.30;42.20;28.80;94554.00;;;;10309772;28;75043;-67
2021/10/08 16:50:39;;;;;;;2.00;1.55;;;24.40;42.40;28.80;94567.00;;;;10344611;28;75493;-68
2021/10/08 16:55:40;;;;;;;2.75;1.50;;;24.40;42.40;28.80;94564.00;;;;10346762;28;75295;-70
2021/10/08 17:00:41;;;;;;;2.75;1.58;;;24.40;42.50;28.80;94560.00;;;;10372108;28;74150;-70
2021/10/08 17:05:44;;;;;;;2.45;1.77;;;24.40;42.60;28.80;94572.00;;;;10341834;28;45536;-68
2021/10/08 17:10:45;;;;;;;2.15;1.55;;;24.40;42.70;28.80;94561.00;;;;10348247;28;45696;-70
2021/10/08 17:15:46;;;;;;;2.90;1.65;;;24.40;42.70;28.80;94568.00;;;;10349476;28;45357;-67
2021/10/08 17:20:48;;;;;;;2.28;1.50;;;24.40;42.70;28.90;94566.00;;;;10338998;28;46563;-69
2021/10/08 17:36:09;;;;;;;3.25;1.90;;;24.40;42.00;28.80;94564.00;;;;10306821;28;45469;-65
2021/10/08 17:41:09;;;;;;;1.90;1.60;;;24.40;42.00;28.80;94579.00;;;;10306342;28;74338;-68
2021/10/08 17:46:11;;;;;;;2.53;1.67;;;24.40;42.00;28.80;94572.00;;;;10322772;28;55711;-68
2021/10/08 17:51:12;;;;;;;2.90;1.80;;;24.40;42.00;28.90;94582.00;;;;10329266;28;45384;-67
2021/10/08 17:56:15;;;;;;;3.58;1.88;;;24.40;42.10;28.80;94569.00;;;;10347347;28;45293;-68
2021/10/08 18:01:19;;;;;;;2.63;1.70;;;24.40;41.90;28.80;94568.00;;;;10331006;28;47255;-67
2021/10/08 18:06:20;;;;;;;2.45;1.60;;;24.40;41.90;28.80;94568.00;;;;10347075;28;45349;-67
2021/10/08 18:11:21;;;;;;;3.30;1.73;;;24.40;41.90;28.80;94574.00;;;;10341718;28;47252;-67
2021/10/08 18:16:25;;;;;;;4.53;2.17;;;24.40;41.90;28.80;94577.00;;;;10346080;28;48306;-67
2021/10/08 18:21:25;;;;;;;2.35;1.80;;;24.40;41.90;28.90;94585.00;;;;10353956;28;46584;-66
2021/10/08 18:26:27;;;;;;;4.22;2.45;;;24.40;41.90;28.90;94576.00;;;;10355427;28;45408;-68
2021/10/08 18:31:28;;;;;;;3.15;2.05;;;24.50;42.00;28.90;94573.00;;;;10353241;28;45669;-62
2021/10/08 18:36:30;;;;;;;3.25;2.10;;;24.50;42.10;28.90;94576.00;;;;10354624;28;45660;-64
2021/10/08 18:41:31;;;;;;;4.15;2.10;;;24.50;41.90;28.90;94576.00;;;;10340457;28;45521;-64
2021/10/08 18:46:34;;;;;;;3.67;2.20;;;24.40;41.80;28.80;94576.00;;;;10330968;28;74781;-64
2021/10/08 18:51:36;;;;;;;3.67;2.10;;;24.40;41.70;28.80;94575.00;;;;10338856;28;45917;-64
2021/10/08 18:56:37;;;;;;;4.32;2.20;;;24.40;41.60;28.80;94578.00;;;;10298247;28;47927;-63
2021/10/08 19:01:38;;;;;;;2.70;2.10;;;24.30;41.50;28.70;94583.00;;;;10312232;28;59144;-64
2021/10/08 19:06:39;;;;;;;3.20;1.98;;;24.30;41.70;28.70;94583.00;;;;10313275;28;47226;-64
2021/10/08 19:11:44;;;;;;;3.53;2.08;;;24.30;41.60;28.70;94581.00;;;;10312417;28;47524;-63
2021/10/08 19:21:46;;;;;;;4.07;2.10;;;24.30;41.60;28.70;94570.00;;;;10312234;28;56921;-62
2021/10/08 19:26:48;;;;;;;3.05;2.03;;;24.30;41.60;28.70;94571.00;;;;10311443;28;75154;-64
2021/10/08 19:31:49;;;;;;;2.85;2.00;;;24.30;41.60;28.70;94575.00;;;;10312430;28;45345;-64
2021/10/08 19:36:49;;;;;;;2.95;2.10;;;24.30;41.60;28.70;94563.00;;;;10310783;28;76631;-64
2021/10/08 19:41:50;;;;;;;3.17;2.20;;;24.30;41.50;28.70;94560.00;;;;10311133;28;47343;-63
2021/10/08 19:46:53;;;;;;;3.80;2.28;;;24.30;41.50;28.70;94567.00;;;;10311307;28;47236;-64
2021/10/08 19:51:53;;;;;;;3.13;2.17;;;24.30;41.60;28.70;94571.00;;;;10311733;28;47042;-64
2021/10/08 19:56:57;;;;;;;3.10;2.10;;;24.30;41.50;28.70;94570.00;;;;10310038;28;74377;-63
2021/10/08 20:02:00;;;;;;;3.30;2.10;;;24.30;41.50;28.70;94564.00;;;;10311367;28;45557;-63
2021/10/08 20:17:34;;;;;;;3.28;2.10;;;24.30;41.50;28.60;94555.00;;;;10326985;28;45694;-63
2021/10/08 20:22:34;;;;;;;3.75;2.60;;;24.30;41.50;28.60;94542.00;;;;10368674;28;75538;-64
2021/10/08 20:27:35;;;;;;;3.22;2.33;;;24.30;41.50;28.60;94543.00;;;;10369999;28;75557;-62
2021/10/08 20:32:36;;;;;;;2.97;2.30;;;24.20;41.50;28.60;94547.00;;;;10391491;28;47018;-63
2021/10/08 20:37:36;;;;;;;3.53;2.38;;;24.20;41.40;28.60;94547.00;;;;10374240;28;73682;-63
2021/10/08 20:42:37;;;;;;;3.80;2.50;;;24.20;42.00;28.60;94555.00;;;;10373604;28;74819;-62
2021/10/08 20:47:38;;;;;;;3.50;2.50;;;24.20;41.40;28.50;94545.00;;;;10393160;28;45481;-64
2021/10/08 20:52:39;;;;;;;3.50;2.60;;;24.10;41.40;28.50;94538.00;;;;10391383;28;45402;-63
2021/10/08 20:57:39;;;;;;;3.13;2.35;;;24.10;41.40;28.50;94537.00;;;;10390947;28;47115;-63
2021/10/08 21:02:42;;;;;;;3.85;2.65;;;24.10;41.40;28.50;94522.00;;;;10390168;28;74239;-63
2021/10/08 21:07:43;;;;;;;3.60;2.60;;;24.10;41.40;28.50;94529.00;;;;10390677;28;47287;-62
2021/10/08 21:12:46;;;;;;;3.80;2.30;;;24.10;41.50;28.40;94528.00;;;;10374023;28;47188;-63
2021/10/08 21:17:47;;;;;;;3.92;2.60;;;24.10;41.40;28.40;94534.00;;;;10390684;28;45603;-62
2021/10/08 21:22:48;;;;;;;3.25;2.38;;;24.00;41.40;28.40;94529.00;;;;10374401;22;74529;-63
2021/10/08 21:27:49;;;;;;;4.15;2.75;;;24.00;41.40;28.40;94525.00;;;;10324222;28;74646;-64
2021/10/08 21:32:51;;;;;;;4.57;2.78;;;24.00;41.40;28.40;94528.00;;;;10304925;28;46324;-62
2021/10/08 21:37:57;;;;;;;3.17;2.30;;;24.00;41.50;28.30;94520.00;;;;10267759;28;45617;-62
2021/10/08 21:48:19;;;;;;;4.43;2.63;;;23.90;41.40;28.30;94511.00;;;;10268706;28;45835;-62
2021/10/08 21:53:19;;;;;;;3.67;2.72;;;23.90;41.40;28.30;94512.00;;;;10272190;28;48170;-63
2021/10/08 21:58:20;;;;;;;4.13;2.90;;;23.90;41.40;28.20;94503.00;;;;10274544;28;45321;-64
2021/10/08 22:03:21;;;;;;;4.22;2.70;;;23.90;41.50;28.20;94501.00;;;;10273027;28;75337;-63
2021/10/08 22:08:22;;;;;;;3.75;2.65;;;23.90;41.40;28.20;94493.00;;;;10273773;28;47542;-63
2021/10/08 22:13:22;;;;;;;4.30;3.00;;;23.90;41.50;28.20;94497.00;;;;10272823;28;76623;-63
2021/10/08 22:18:29;;;;;;;3.53;2.60;;;23.80;41.40;28.20;94491.00;;;;10272605;28;75412;-63
2021/10/08 22:23:39;;;;;;;3.88;2.67;;;23.80;41.40;28.20;94486.00;;;;10273985;28;47527;-62
2021/10/08 22:28:51;;;;;;;4.03;2.90;;;23.80;41.30;28.10;94488.00;;;;10273575;28;45423;-63
2021/10/08 22:33:53;;;;;;;4.13;2.97;;;23.80;41.40;28.10;94493.00;;;;10273746;28;45679;-64
2021/10/08 22:38:54;;;;;;;4.07;2.72;;;23.80;41.40;28.10;94490.00;;;;10274653;28;45511;-63
2021/10/08 22:43:55;;;;;;;3.88;2.65;;;23.80;41.60;28.10;94481.00;;;;10272172;28;75219;-63
2021/10/08 22:48:55;;;;;;;3.78;2.80;;;23.80;41.30;28.10;94476.00;;;;10273685;28;69730;-63
2021/10/08 22:53:56;;;;;;;4.22;3.20;;;23.70;41.40;28.10;94462.00;;;;10271255;28;72989;-63